createdAt,value
2017-03-13T00:00:46.961Z,84.17
2017-03-13T00:01:57.545Z,84.27
2017-03-13T00:03:07.313Z,84.17
2017-03-13T00:04:17.053Z,84.13
2017-03-13T00:05:27.210Z,84.17
2017-03-13T00:06:37.935Z,84.65
2017-03-13T00:07:48.519Z,84.04
2017-03-13T00:08:58.661Z,84.8
2017-03-13T00:10:09.213Z,84.7
2017-03-13T00:11:19.395Z,84.61
2017-03-13T00:12:29.693Z,84.13
2017-03-13T00:13:40.261Z,84.7
2017-03-13T00:14:50.406Z,84.51
2017-03-13T00:16:00.977Z,84.51
2017-03-13T00:17:11.571Z,84.89
2017-03-13T00:18:22.202Z,84.89
2017-03-13T00:19:33.164Z,84.89
2017-03-13T00:20:43.733Z,84.99
2017-03-13T00:21:54.316Z,84.89
2017-03-13T00:23:04.883Z,85.08
2017-03-13T00:24:15.279Z,84.8
2017-03-13T00:25:25.017Z,84.7
2017-03-13T00:26:35.585Z,85.36
2017-03-13T00:27:45.745Z,85.17
2017-03-13T00:28:56.291Z,85.27
2017-03-13T00:30:06.188Z,85.36
2017-03-13T00:31:15.522Z,85.36
2017-03-13T00:32:26.086Z,85.55
2017-03-13T00:33:36.649Z,85.65
2017-03-13T00:34:46.373Z,85.46
2017-03-13T00:35:55.854Z,85.36
2017-03-13T00:37:06.019Z,85.55
2017-03-13T00:38:16.987Z,86.22
2017-03-13T00:39:27.149Z,86.22
2017-03-13T00:40:37.718Z,85.27
2017-03-13T00:41:48.623Z,85.84
2017-03-13T00:42:59.177Z,86.22
2017-03-13T00:44:09.322Z,86.03
2017-03-13T00:45:19.091Z,86.22
2017-03-13T00:46:29.670Z,86.22
2017-03-13T00:47:39.889Z,85.36
2017-03-13T00:48:48.815Z,85.74
2017-03-13T00:49:59.368Z,86.22
2017-03-13T00:51:08.690Z,85.74
2017-03-13T00:52:18.840Z,86.03
2017-03-13T00:53:28.588Z,85.74
2017-03-13T00:54:39.159Z,85.93
2017-03-13T00:55:49.735Z,85.93
2017-03-13T00:57:00.291Z,86.22
2017-03-13T00:58:10.492Z,86.31
2017-03-13T00:59:21.054Z,86.03
2017-03-13T01:00:30.803Z,86.5
2017-03-13T01:01:40.954Z,86.03
2017-03-13T01:02:51.157Z,85.84
2017-03-13T01:04:01.329Z,86.22
2017-03-13T01:05:12.040Z,86.12
2017-03-13T01:06:22.634Z,86.12
2017-03-13T01:07:33.185Z,86.31
2017-03-13T01:08:43.348Z,86.31
2017-03-13T01:09:53.496Z,86.5
2017-03-13T01:11:04.054Z,86.69
2017-03-13T01:12:14.623Z,86.12
2017-03-13T01:13:25.199Z,86.6
2017-03-13T01:14:35.370Z,86.5
2017-03-13T01:15:45.116Z,86.31
2017-03-13T01:16:55.033Z,86.69
2017-03-13T01:18:05.187Z,86.69
2017-03-13T01:19:14.938Z,86.6
2017-03-13T01:20:24.685Z,86.69
2017-03-13T01:21:33.605Z,86.6
2017-03-13T01:22:44.320Z,87.07
2017-03-13T01:23:54.895Z,87.16
2017-03-13T01:25:04.666Z,87.16
2017-03-13T01:26:15.239Z,86.98
2017-03-13T01:27:25.403Z,87.07
2017-03-13T01:28:35.603Z,87.07
2017-03-13T01:29:45.354Z,86.88
2017-03-13T01:30:55.910Z,86.98
2017-03-13T01:32:05.668Z,87.45
2017-03-13T01:33:15.441Z,86.98
2017-03-13T01:34:25.346Z,87.35
2017-03-13T01:35:35.931Z,87.26
2017-03-13T01:36:45.680Z,87.45
2017-03-13T01:37:55.422Z,87.69
2017-03-13T01:39:05.982Z,87.59
2017-03-13T01:40:16.696Z,87.73
2017-03-13T01:41:27.277Z,87.69
2017-03-13T01:42:37.419Z,88.07
2017-03-13T01:43:47.574Z,87.78
2017-03-13T01:44:57.713Z,87.78
2017-03-13T01:46:07.469Z,87.5
2017-03-13T01:47:17.624Z,87.69
2017-03-13T01:48:27.783Z,87.98
2017-03-13T01:49:38.355Z,87.98
2017-03-13T01:50:48.941Z,87.69
2017-03-13T01:51:59.255Z,88.07
2017-03-13T01:53:09.430Z,88.07
2017-03-13T01:54:19.986Z,87.5
2017-03-13T01:55:30.543Z,87.69
2017-03-13T01:56:40.701Z,87.59
2017-03-13T01:57:50.988Z,87.78
2017-03-13T01:59:00.730Z,88.17
2017-03-13T02:00:09.647Z,88.17
2017-03-13T02:01:20.206Z,88.17
2017-03-13T02:02:29.936Z,88.35
2017-03-13T02:03:40.247Z,87.98
2017-03-13T02:04:50.419Z,88.17
2017-03-13T02:06:00.990Z,88.26
2017-03-13T02:07:10.739Z,88.07
2017-03-13T02:08:20.891Z,88.17
2017-03-13T02:09:31.585Z,88.82
2017-03-13T02:10:41.342Z,88.17
2017-03-13T02:11:51.501Z,88.82
2017-03-13T02:13:02.056Z,88.54
2017-03-13T02:14:12.228Z,88.92
2017-03-13T02:15:22.667Z,88.17
2017-03-13T02:16:32.433Z,88.64
2017-03-13T02:17:41.778Z,88.92
2017-03-13T02:18:51.928Z,88.73
2017-03-13T02:20:01.661Z,88.82
2017-03-13T02:21:11.013Z,88.54
2017-03-13T02:22:21.575Z,88.64
2017-03-13T02:23:31.721Z,88.73
2017-03-13T02:24:41.105Z,89.11
2017-03-13T02:25:51.677Z,88.82
2017-03-13T02:27:02.449Z,88.73
2017-03-13T02:28:12.599Z,88.82
2017-03-13T02:29:23.583Z,88.73
2017-03-13T02:30:34.137Z,89.01
2017-03-13T02:31:44.751Z,88.92
2017-03-13T02:32:55.051Z,88.73
2017-03-13T02:34:05.207Z,88.82
2017-03-13T02:35:15.369Z,89.3
2017-03-13T02:36:25.526Z,88.92
2017-03-13T02:37:35.683Z,89.49
2017-03-13T02:38:45.843Z,88.92
2017-03-13T02:39:56.014Z,89.3
2017-03-13T02:41:06.165Z,88.92
2017-03-13T02:42:16.731Z,89.49
2017-03-13T02:43:26.890Z,89.68
2017-03-13T02:44:37.188Z,89.68
2017-03-13T02:45:47.346Z,89.58
2017-03-13T02:46:57.131Z,89.49
2017-03-13T02:48:07.286Z,89.39
2017-03-13T02:49:18.268Z,89.01
2017-03-13T02:50:28.563Z,89.39
2017-03-13T02:51:39.120Z,90.06
2017-03-13T02:52:49.719Z,89.2
2017-03-13T02:54:00.693Z,89.96
2017-03-13T02:55:10.845Z,90.06
2017-03-13T02:56:20.414Z,90.06
2017-03-13T02:57:30.561Z,89.87
2017-03-13T02:58:41.134Z,90.06
2017-03-13T02:59:50.068Z,90.06
2017-03-13T03:00:59.813Z,89.58
2017-03-13T03:02:09.698Z,90.06
2017-03-13T03:03:19.425Z,90.06
2017-03-13T03:04:30.419Z,89.87
2017-03-13T03:05:40.993Z,89.96
2017-03-13T03:06:51.151Z,90.25
2017-03-13T03:08:00.898Z,90.34
2017-03-13T03:09:11.047Z,90.53
2017-03-13T03:10:21.593Z,90.06
2017-03-13T03:11:32.557Z,90.25
2017-03-13T03:12:42.301Z,90.53
2017-03-13T03:13:52.038Z,90.06
2017-03-13T03:15:01.798Z,89.87
2017-03-13T03:16:11.143Z,90.53
2017-03-13T03:17:21.721Z,90.48
2017-03-13T03:18:31.869Z,90.58
2017-03-13T03:19:42.046Z,90.34
2017-03-13T03:20:53.026Z,90.25
2017-03-13T03:22:03.574Z,90.63
2017-03-13T03:23:13.333Z,90.3
2017-03-13T03:24:23.486Z,90.01
2017-03-13T03:25:34.258Z,90.67
2017-03-13T03:26:44.409Z,90.96
2017-03-13T03:27:54.554Z,90.58
2017-03-13T03:29:05.114Z,90.67
2017-03-13T03:30:14.453Z,90.86
2017-03-13T03:31:23.936Z,90.48
2017-03-13T03:32:34.502Z,90.48
2017-03-13T03:33:45.466Z,90.58
2017-03-13T03:34:55.216Z,90.48
2017-03-13T03:36:05.789Z,90.77
2017-03-13T03:37:15.174Z,90.77
2017-03-13T03:38:25.345Z,90.86
2017-03-13T03:39:35.918Z,90.96
2017-03-13T03:40:46.073Z,91.34
2017-03-13T03:41:55.812Z,91.05
2017-03-13T03:43:06.518Z,91.62
2017-03-13T03:44:16.246Z,90.77
2017-03-13T03:45:26.802Z,90.86
2017-03-13T03:46:36.558Z,90.77
2017-03-13T03:47:46.724Z,90.96
2017-03-13T03:48:56.112Z,90.96
2017-03-13T03:50:06.257Z,91.05
2017-03-13T03:51:16.414Z,91.15
2017-03-13T03:52:26.577Z,91.24
2017-03-13T03:53:36.313Z,91.24
2017-03-13T03:54:47.429Z,91.24
2017-03-13T03:55:57.578Z,91.34
2017-03-13T03:57:08.136Z,91.05
2017-03-13T03:58:17.878Z,91.53
2017-03-13T03:59:28.026Z,91.34
2017-03-13T04:00:38.338Z,91.43
2017-03-13T04:01:48.516Z,91.05
2017-03-13T04:02:58.253Z,91.24
2017-03-13T04:04:08.018Z,91.53
2017-03-13T04:05:19.020Z,91.34
2017-03-13T04:06:29.347Z,91.43
2017-03-13T04:07:39.498Z,91.53
2017-03-13T04:08:49.657Z,91.91
2017-03-13T04:09:59.401Z,91.34
2017-03-13T04:11:08.730Z,91.15
2017-03-13T04:12:18.744Z,91.53
2017-03-13T04:13:28.074Z,91.72
2017-03-13T04:14:38.644Z,91.62
2017-03-13T04:15:49.204Z,91.81
2017-03-13T04:16:59.773Z,91.81
2017-03-13T04:18:10.438Z,92
2017-03-13T04:19:20.578Z,91.81
2017-03-13T04:20:29.930Z,91.81
2017-03-13T04:21:40.895Z,91.91
2017-03-13T04:22:50.650Z,92.1
2017-03-13T04:24:00.919Z,91.81
2017-03-13T04:25:11.075Z,92.19
2017-03-13T04:26:20.815Z,91.91
2017-03-13T04:27:30.979Z,92
2017-03-13T04:28:40.714Z,92.1
2017-03-13T04:29:51.274Z,92.47
2017-03-13T04:31:01.845Z,92.19
2017-03-13T04:32:11.583Z,92.19
2017-03-13T04:33:21.312Z,91.81
2017-03-13T04:34:31.861Z,92.29
2017-03-13T04:35:42.580Z,92.19
2017-03-13T04:36:53.159Z,92.29
2017-03-13T04:38:02.480Z,92
2017-03-13T04:39:11.825Z,91.81
2017-03-13T04:40:21.974Z,92
2017-03-13T04:41:31.719Z,92.38
2017-03-13T04:42:41.884Z,92.1
2017-03-13T04:43:52.049Z,92.76
2017-03-13T04:45:02.219Z,92.66
2017-03-13T04:46:11.956Z,92.57
2017-03-13T04:47:22.610Z,92.57
2017-03-13T04:48:33.176Z,92.19
2017-03-13T04:49:44.160Z,92.19
2017-03-13T04:50:54.325Z,92.29
2017-03-13T04:52:04.494Z,92.29
2017-03-13T04:53:14.323Z,92.19
2017-03-13T04:54:24.907Z,92.47
2017-03-13T04:55:35.073Z,92.1
2017-03-13T04:56:44.825Z,92.38
2017-03-13T04:57:54.554Z,92.66
2017-03-13T04:59:04.584Z,92.19
2017-03-13T05:00:14.745Z,92.19
2017-03-13T05:01:25.306Z,92.29
2017-03-13T05:02:36.268Z,92.66
2017-03-13T05:03:46.831Z,92.66
2017-03-13T05:04:56.701Z,92.47
2017-03-13T05:06:06.449Z,92.38
2017-03-13T05:07:15.791Z,92.76
2017-03-13T05:08:26.353Z,92.29
2017-03-13T05:09:36.917Z,92.38
2017-03-13T05:10:47.124Z,92.47
2017-03-13T05:11:56.873Z,92.66
2017-03-13T05:13:07.418Z,92.66
2017-03-13T05:14:17.156Z,92.66
2017-03-13T05:15:27.299Z,92.66
2017-03-13T05:16:37.826Z,92.9
2017-03-13T05:17:47.578Z,92.94
2017-03-13T05:18:56.909Z,92.76
2017-03-13T05:20:06.665Z,92.71
2017-03-13T05:21:16.817Z,92.8
2017-03-13T05:22:26.670Z,93.04
2017-03-13T05:23:37.225Z,92.8
2017-03-13T05:24:46.963Z,93.37
2017-03-13T05:25:57.120Z,93.28
2017-03-13T05:27:07.685Z,92.71
2017-03-13T05:28:18.010Z,92.94
2017-03-13T05:29:28.162Z,92.66
2017-03-13T05:30:38.723Z,92.71
2017-03-13T05:31:48.898Z,92.8
2017-03-13T05:32:59.511Z,92.61
2017-03-13T05:34:10.221Z,92.8
2017-03-13T05:35:21.191Z,92.8
2017-03-13T05:36:31.338Z,93.32
2017-03-13T05:37:41.488Z,92.71
2017-03-13T05:38:51.639Z,92.52
2017-03-13T05:40:01.623Z,93.04
2017-03-13T05:41:11.386Z,92.57
2017-03-13T05:42:20.303Z,92.8
2017-03-13T05:43:30.846Z,92.66
2017-03-13T05:44:40.999Z,92.71
2017-03-13T05:45:51.255Z,92.8
2017-03-13T05:47:01.398Z,92.99
2017-03-13T05:48:11.950Z,92.99
2017-03-13T05:49:22.532Z,92.71
2017-03-13T05:50:33.150Z,92.61
2017-03-13T05:51:43.474Z,92.85
2017-03-13T05:52:53.626Z,92.8
2017-03-13T05:54:03.795Z,92.57
2017-03-13T05:55:13.528Z,92.33
2017-03-13T05:56:24.087Z,92.71
2017-03-13T05:57:34.069Z,92.61
2017-03-13T05:58:44.633Z,92.71
2017-03-13T05:59:54.800Z,92.71
2017-03-13T06:01:04.558Z,92.8
2017-03-13T06:02:14.730Z,92.9
2017-03-13T06:03:24.480Z,92.8
2017-03-13T06:04:34.618Z,93.09
2017-03-13T06:05:44.769Z,92.71
2017-03-13T06:06:55.346Z,92.57
2017-03-13T06:08:04.266Z,92.99
2017-03-13T06:09:13.588Z,92.61
2017-03-13T06:10:22.507Z,92.57
2017-03-13T06:11:33.103Z,92.85
2017-03-13T06:12:43.720Z,92.76
2017-03-13T06:13:54.278Z,92.47
2017-03-13T06:15:04.842Z,92.29
2017-03-13T06:16:15.408Z,92.38
2017-03-13T06:17:25.559Z,92.19
2017-03-13T06:18:36.136Z,92.19
2017-03-13T06:19:46.272Z,92.19
2017-03-13T06:20:56.009Z,91.72
2017-03-13T06:22:06.587Z,92.38
2017-03-13T06:23:16.733Z,92.1
2017-03-13T06:24:26.076Z,92.19
2017-03-13T06:25:36.226Z,92.33
2017-03-13T06:26:46.771Z,92.1
2017-03-13T06:27:57.736Z,91.81
2017-03-13T06:29:08.290Z,92.19
2017-03-13T06:30:18.429Z,91.62
2017-03-13T06:31:28.598Z,91.91
2017-03-13T06:32:39.158Z,92.1
2017-03-13T06:33:50.121Z,91.24
2017-03-13T06:35:00.277Z,91.81
2017-03-13T06:36:10.008Z,91.62
2017-03-13T06:37:20.156Z,91.81
2017-03-13T06:38:30.732Z,91.53
2017-03-13T06:39:40.949Z,91.62
2017-03-13T06:40:50.691Z,91.34
2017-03-13T06:42:00.448Z,90.96
2017-03-13T06:43:10.610Z,90.77
2017-03-13T06:44:21.590Z,90.67
2017-03-13T06:45:32.166Z,90.67
2017-03-13T06:46:42.722Z,91.15
2017-03-13T06:47:52.861Z,90.67
2017-03-13T06:49:03.167Z,90.77
2017-03-13T06:50:13.319Z,90.58
2017-03-13T06:51:23.083Z,90.86
2017-03-13T06:52:33.246Z,90.77
2017-03-13T06:53:44.230Z,90.39
2017-03-13T06:54:55.392Z,90.39
2017-03-13T06:56:05.159Z,90.2
2017-03-13T06:57:14.891Z,90.2
2017-03-13T06:58:25.042Z,90.2
2017-03-13T06:59:34.791Z,90.48
2017-03-13T07:00:44.969Z,90.3
2017-03-13T07:01:55.117Z,90.3
2017-03-13T07:03:04.862Z,90.3
2017-03-13T07:04:15.030Z,90.01
2017-03-13T07:05:25.172Z,90.3
2017-03-13T07:06:35.595Z,89.92
2017-03-13T07:07:46.179Z,90.3
2017-03-13T07:08:56.347Z,90.3
2017-03-13T07:10:06.499Z,89.82
2017-03-13T07:11:15.843Z,90.01
2017-03-13T07:12:26.061Z,89.82
2017-03-13T07:13:36.200Z,90.01
2017-03-13T07:14:46.365Z,88.97
2017-03-13T07:15:56.130Z,89.58
2017-03-13T07:17:07.124Z,89.58
2017-03-13T07:18:17.593Z,89.49
2017-03-13T07:19:27.749Z,89.49
2017-03-13T07:20:37.899Z,88.82
2017-03-13T07:21:48.046Z,89.58
2017-03-13T07:22:57.793Z,88.92
2017-03-13T07:24:07.588Z,88.92
2017-03-13T07:25:18.151Z,88.92
2017-03-13T07:26:28.720Z,88.82
2017-03-13T07:27:38.866Z,89.2
2017-03-13T07:28:48.601Z,88.92
2017-03-13T07:29:58.916Z,88.64
2017-03-13T07:31:08.677Z,89.11
2017-03-13T07:32:19.234Z,88.64
2017-03-13T07:33:29.797Z,88.17
2017-03-13T07:34:39.789Z,88.07
2017-03-13T07:35:50.523Z,87.5
2017-03-13T07:37:01.324Z,87.69
2017-03-13T07:38:11.378Z,86.83
2017-03-13T07:39:21.941Z,87.02
2017-03-13T07:40:32.109Z,85.84
2017-03-13T07:41:42.985Z,86.03
2017-03-13T07:42:53.040Z,85.36
2017-03-13T07:44:03.231Z,85.17
2017-03-13T07:45:13.426Z,85.55
2017-03-13T07:46:23.231Z,86.03
2017-03-13T07:47:33.618Z,86.12
2017-03-13T07:48:44.650Z,85.93
2017-03-13T07:49:54.808Z,85.27
2017-03-13T07:51:04.174Z,85.17
2017-03-13T07:52:14.334Z,84.61
2017-03-13T07:53:24.815Z,84.7
2017-03-13T07:54:34.979Z,84.7
2017-03-13T07:55:46.020Z,84.51
2017-03-13T07:56:55.770Z,84.04
2017-03-13T07:58:05.509Z,84.13
2017-03-13T07:59:15.680Z,83.85
2017-03-13T08:00:25.831Z,83.85
2017-03-13T08:01:35.592Z,84.04
2017-03-13T08:02:45.739Z,84.32
2017-03-13T08:03:55.071Z,84.42
2017-03-13T08:05:04.602Z,84.7
2017-03-13T08:06:14.362Z,84.99
2017-03-13T08:07:24.134Z,83.75
2017-03-13T08:08:34.754Z,83.75
2017-03-13T08:09:45.303Z,83.94
2017-03-13T08:10:55.632Z,84.04
2017-03-13T08:12:06.285Z,84.04
2017-03-13T08:13:16.670Z,83.85
2017-03-13T08:14:27.221Z,84.04
2017-03-13T08:15:37.387Z,83.94
2017-03-13T08:16:47.985Z,83.37
2017-03-13T08:17:58.149Z,83.47
2017-03-13T08:19:07.481Z,83.37
2017-03-13T08:20:18.452Z,83.66
2017-03-13T08:21:29.074Z,83.18
2017-03-13T08:22:39.663Z,83.75
2017-03-13T08:23:49.449Z,83.37
2017-03-13T08:24:59.616Z,83.28
2017-03-13T08:26:09.774Z,83.75
2017-03-13T08:27:19.512Z,83.04
2017-03-13T08:28:28.991Z,83.13
2017-03-13T08:29:39.566Z,83.13
2017-03-13T08:30:48.497Z,83.13
2017-03-13T08:31:57.822Z,82.75
2017-03-13T08:33:08.389Z,82.28
2017-03-13T08:34:17.485Z,82.37
2017-03-13T08:35:27.241Z,82.37
2017-03-13T08:36:37.382Z,81.99
2017-03-13T08:37:47.169Z,82.47
2017-03-13T08:38:57.325Z,82.37
2017-03-13T08:40:08.131Z,82.28
2017-03-13T08:41:18.286Z,82.18
2017-03-13T08:42:27.611Z,82.47
2017-03-13T08:43:37.359Z,82.37
2017-03-13T08:44:47.120Z,82.09
2017-03-13T08:45:57.746Z,82.66
2017-03-13T08:47:07.886Z,82.94
2017-03-13T08:48:18.058Z,82.85
2017-03-13T08:49:27.822Z,82.28
2017-03-13T08:50:37.589Z,81.43
2017-03-13T08:51:48.354Z,80.9
2017-03-13T08:52:58.511Z,80.86
2017-03-13T08:54:08.269Z,80.76
2017-03-13T08:55:18.826Z,80.43
2017-03-13T08:56:28.995Z,80.48
2017-03-13T08:57:39.225Z,80.95
2017-03-13T08:58:49.391Z,80.67
2017-03-13T08:59:59.123Z,80.99
2017-03-13T09:01:08.885Z,80.33
2017-03-13T09:02:19.459Z,80.62
2017-03-13T09:03:29.341Z,80.04
2017-03-13T09:04:39.515Z,79.66
2017-03-13T09:05:50.089Z,79.57
2017-03-13T09:07:00.644Z,79
2017-03-13T09:08:10.814Z,79.28
2017-03-13T09:09:20.973Z,79.57
2017-03-13T09:10:30.722Z,79.85
2017-03-13T09:11:40.455Z,79.19
2017-03-13T09:12:50.618Z,78.91
2017-03-13T09:14:00.391Z,79.19
2017-03-13T09:15:10.550Z,79.19
2017-03-13T09:16:21.140Z,77.96
2017-03-13T09:17:30.878Z,77.58
2017-03-13T09:18:40.648Z,78.53
2017-03-13T09:19:51.197Z,77.77
2017-03-13T09:21:01.521Z,77.58
2017-03-13T09:22:12.070Z,78.24
2017-03-13T09:23:22.641Z,77.86
2017-03-13T09:24:32.390Z,78.24
2017-03-13T09:25:41.725Z,78.24
2017-03-13T09:26:51.862Z,78.91
2017-03-13T09:28:01.606Z,78.53
2017-03-13T09:29:12.166Z,78.81
2017-03-13T09:30:21.909Z,78.05
2017-03-13T09:31:32.057Z,77.77
2017-03-13T09:32:42.679Z,78.24
2017-03-13T09:33:52.427Z,77.86
2017-03-13T09:35:02.986Z,77.96
2017-03-13T09:36:13.129Z,77.77
2017-03-13T09:37:22.491Z,77.48
2017-03-13T09:38:33.191Z,77.01
2017-03-13T09:39:42.528Z,76.92
2017-03-13T09:40:52.676Z,77.29
2017-03-13T09:42:02.423Z,77.33
2017-03-13T09:43:12.186Z,77.33
2017-03-13T09:44:21.621Z,76.67
2017-03-13T09:45:31.774Z,76.86
2017-03-13T09:46:42.351Z,77.05
2017-03-13T09:47:52.116Z,76.57
2017-03-13T09:49:02.273Z,76.57
2017-03-13T09:50:13.132Z,76.01
2017-03-13T09:51:24.111Z,76.01
2017-03-13T09:52:33.848Z,75.24
2017-03-13T09:53:44.422Z,75.62
2017-03-13T09:54:54.160Z,75.81
2017-03-13T09:56:04.196Z,75.15
2017-03-13T09:57:13.942Z,75
2017-03-13T09:58:24.504Z,74.9
2017-03-13T09:59:34.292Z,75.09
2017-03-13T10:00:44.442Z,74.52
2017-03-13T10:01:55.152Z,74.43
2017-03-13T10:03:04.905Z,73.76
2017-03-13T10:04:15.878Z,73.57
2017-03-13T10:05:25.263Z,73.96
2017-03-13T10:06:35.018Z,74.15
2017-03-13T10:07:45.696Z,73.38
2017-03-13T10:08:56.682Z,73.38
2017-03-13T10:10:06.827Z,73.42
2017-03-13T10:11:16.974Z,73.04
2017-03-13T10:12:27.545Z,72.95
2017-03-13T10:13:37.963Z,72.66
2017-03-13T10:14:48.965Z,71.71
2017-03-13T10:15:59.943Z,71.71
2017-03-13T10:17:10.101Z,72
2017-03-13T10:18:19.434Z,72.56
2017-03-13T10:19:29.952Z,71.71
2017-03-13T10:20:40.102Z,71.43
2017-03-13T10:21:50.271Z,70.86
2017-03-13T10:23:00.837Z,70.76
2017-03-13T10:24:11.017Z,71.71
2017-03-13T10:25:20.910Z,71.71
2017-03-13T10:26:30.281Z,71.62
2017-03-13T10:27:40.862Z,72
2017-03-13T10:28:51.433Z,71.43
2017-03-13T10:30:02.002Z,71.81
2017-03-13T10:31:11.784Z,72.19
2017-03-13T10:32:21.552Z,72
2017-03-13T10:33:31.729Z,72
2017-03-13T10:34:41.891Z,72.03
2017-03-13T10:35:52.042Z,71.37
2017-03-13T10:37:00.956Z,70.7
2017-03-13T10:38:10.728Z,70.89
2017-03-13T10:39:20.492Z,71.27
2017-03-13T10:40:30.636Z,70.7
2017-03-13T10:41:41.637Z,70.7
2017-03-13T10:42:51.941Z,70.04
2017-03-13T10:44:02.530Z,70.23
2017-03-13T10:45:12.677Z,69.21
2017-03-13T10:46:22.843Z,69.12
2017-03-13T10:47:32.995Z,69.41
2017-03-13T10:48:44.125Z,69.12
2017-03-13T10:49:54.273Z,69.79
2017-03-13T10:51:04.840Z,69.12
2017-03-13T10:52:15.008Z,68.74
2017-03-13T10:53:24.762Z,69.21
2017-03-13T10:54:34.977Z,68.84
2017-03-13T10:55:45.173Z,67.79
2017-03-13T10:56:55.329Z,67.13
2017-03-13T10:58:05.907Z,67.5
2017-03-13T10:59:15.275Z,66.27
2017-03-13T11:00:25.079Z,66.55
2017-03-13T11:01:34.837Z,66.68
2017-03-13T11:02:45.412Z,66.2
2017-03-13T11:03:55.182Z,65.73
2017-03-13T11:05:04.923Z,65.54
2017-03-13T11:06:14.911Z,65.25
2017-03-13T11:07:24.658Z,64.69
2017-03-13T11:08:34.452Z,64.4
2017-03-13T11:09:45.019Z,64.11
2017-03-13T11:10:55.620Z,64.97
2017-03-13T11:12:05.936Z,64.59
2017-03-13T11:13:16.085Z,65.1
2017-03-13T11:14:26.226Z,63.67
2017-03-13T11:15:35.990Z,63.1
2017-03-13T11:16:46.152Z,61.58
2017-03-13T11:17:56.756Z,61.77
2017-03-13T11:19:07.329Z,63.2
2017-03-13T11:20:17.065Z,61.99
2017-03-13T11:21:26.818Z,61.61
2017-03-13T11:22:37.387Z,60.85
2017-03-13T11:23:48.066Z,59.99
2017-03-13T11:24:58.243Z,58.94
2017-03-13T11:26:07.579Z,59.86
2017-03-13T11:27:18.148Z,59.99
2017-03-13T11:28:28.299Z,60.27
2017-03-13T11:29:38.507Z,59.8
2017-03-13T11:30:48.263Z,59.7
2017-03-13T11:31:58.859Z,60.56
2017-03-13T11:33:08.197Z,60.75
2017-03-13T11:34:18.770Z,58.84
2017-03-13T11:35:28.979Z,58.78
2017-03-13T11:36:39.169Z,58.4
2017-03-13T11:37:48.916Z,58.4
2017-03-13T11:38:59.071Z,58.11
2017-03-13T11:40:08.813Z,58.5
2017-03-13T11:41:18.626Z,59.64
2017-03-13T11:42:29.182Z,58.4
2017-03-13T11:43:38.946Z,58.21
2017-03-13T11:44:49.529Z,58.02
2017-03-13T11:45:59.298Z,57.73
2017-03-13T11:47:09.794Z,57.73
2017-03-13T11:48:19.976Z,57.92
2017-03-13T11:49:30.141Z,57.92
2017-03-13T11:50:40.311Z,58.02
2017-03-13T11:51:50.885Z,57.64
2017-03-13T11:53:00.903Z,58.59
2017-03-13T11:54:09.836Z,58.69
2017-03-13T11:55:19.995Z,58.02
2017-03-13T11:56:29.749Z,57.54
2017-03-13T11:57:40.314Z,57.35
2017-03-13T11:58:51.129Z,58.5
2017-03-13T12:00:01.703Z,58.02
2017-03-13T12:01:11.872Z,58.21
2017-03-13T12:02:22.022Z,57.82
2017-03-13T12:03:31.797Z,57.35
2017-03-13T12:04:41.638Z,57.73
2017-03-13T12:05:51.396Z,57.16
2017-03-13T12:07:01.134Z,57.45
2017-03-13T12:08:11.303Z,57.35
2017-03-13T12:09:21.882Z,56.68
2017-03-13T12:10:32.152Z,57.54
2017-03-13T12:11:41.920Z,57.07
2017-03-13T12:12:51.671Z,57.48
2017-03-13T12:14:01.843Z,57.54
2017-03-13T12:15:12.008Z,57.19
2017-03-13T12:16:21.867Z,56.9
2017-03-13T12:17:32.067Z,56.21
2017-03-13T12:18:42.231Z,56.4
2017-03-13T12:19:52.017Z,57.35
2017-03-13T12:21:02.587Z,56.14
2017-03-13T12:22:12.119Z,55.95
2017-03-13T12:23:22.678Z,56.97
2017-03-13T12:24:32.831Z,57.28
2017-03-13T12:25:42.991Z,56.14
2017-03-13T12:26:53.547Z,56.62
2017-03-13T12:28:03.699Z,56.52
2017-03-13T12:29:13.896Z,55.57
2017-03-13T12:30:24.890Z,55.57
2017-03-13T12:31:34.652Z,54.8
2017-03-13T12:32:44.422Z,55
2017-03-13T12:33:55.341Z,54.71
2017-03-13T12:35:05.906Z,54.71
2017-03-13T12:36:15.254Z,54.61
2017-03-13T12:37:25.434Z,53.66
2017-03-13T12:38:36.038Z,53.78
2017-03-13T12:39:46.242Z,53.12
2017-03-13T12:40:56.407Z,53.31
2017-03-13T12:42:06.218Z,53.21
2017-03-13T12:43:16.386Z,53.59
2017-03-13T12:44:26.956Z,54.26
2017-03-13T12:45:36.443Z,53.59
2017-03-13T12:46:46.186Z,52.83
2017-03-13T12:47:56.759Z,53.05
2017-03-13T12:49:07.349Z,51.52
2017-03-13T12:50:17.101Z,51.52
2017-03-13T12:51:27.581Z,51.07
2017-03-13T12:54:10.002Z,49.83
2017-03-13T12:55:19.555Z,49.83
2017-03-13T12:56:29.471Z,49.07
2017-03-13T12:57:40.035Z,49.28
2017-03-13T12:58:50.199Z,48.71
2017-03-13T12:59:59.564Z,48.8
2017-03-13T13:01:09.897Z,48.71
2017-03-13T13:02:20.174Z,49.18
2017-03-13T13:03:30.298Z,49.09
2017-03-13T13:04:39.617Z,48.8
2017-03-13T13:05:50.158Z,48.71
2017-03-13T13:06:59.883Z,48.04
2017-03-13T13:08:09.960Z,48.42
2017-03-13T13:09:20.090Z,49.47
2017-03-13T13:10:29.812Z,49.66
2017-03-13T13:11:39.529Z,49.28
2017-03-13T13:12:48.424Z,49.16
2017-03-13T13:13:57.324Z,49.35
2017-03-13T13:15:06.218Z,49.54
2017-03-13T13:16:15.121Z,49.83
2017-03-13T13:17:24.830Z,49.28
2017-03-13T13:18:33.728Z,48.8
2017-03-13T13:19:43.903Z,50.43
2017-03-13T13:20:54.845Z,49.28
2017-03-13T13:22:05.388Z,51
2017-03-13T13:23:15.115Z,50.04
2017-03-13T13:24:24.846Z,49.95
2017-03-13T13:25:35.233Z,48.9
2017-03-13T13:26:45.362Z,48.73
2017-03-13T13:27:55.897Z,47.94
2017-03-13T13:29:05.207Z,48.9
2017-03-13T13:30:15.337Z,48.8
2017-03-13T13:31:25.624Z,50.04
2017-03-13T13:32:36.164Z,49.18
2017-03-13T13:33:46.700Z,49.38
2017-03-13T13:34:56.418Z,48.99
2017-03-13T13:36:06.950Z,49.28
2017-03-13T13:37:17.229Z,49.47
2017-03-13T13:38:27.769Z,48.04
2017-03-13T13:39:37.905Z,48.13
2017-03-13T13:40:48.486Z,48.44
2017-03-13T13:41:59.022Z,48.54
2017-03-13T13:43:09.708Z,50.55
2017-03-13T13:44:19.428Z,50.84
2017-03-13T13:45:28.745Z,48.73
2017-03-13T13:46:39.285Z,49.3
2017-03-13T13:47:49.004Z,47.68
2017-03-13T13:48:59.589Z,47.03
2017-03-13T13:50:08.898Z,47.2
2017-03-13T13:51:18.614Z,47.01
2017-03-13T13:52:28.333Z,47.2
2017-03-13T13:53:38.895Z,47.39
2017-03-13T13:54:49.582Z,48.64
2017-03-13T13:56:00.119Z,47.97
2017-03-13T13:57:09.022Z,48.07
2017-03-13T13:58:19.159Z,49.9
2017-03-13T13:59:28.889Z,47.89
2017-03-13T14:00:39.677Z,46.56
2017-03-13T14:01:50.250Z,47.03
2017-03-13T14:03:00.415Z,47.32
2017-03-13T14:04:10.280Z,46.17
2017-03-13T14:05:20.006Z,46.37
2017-03-13T14:06:30.758Z,47.32
2017-03-13T14:07:40.507Z,48.09
2017-03-13T14:08:50.228Z,47.42
2017-03-13T14:10:01.179Z,46.75
2017-03-13T14:11:10.960Z,46.84
2017-03-13T14:12:21.649Z,46.92
2017-03-13T14:13:31.780Z,46.82
2017-03-13T14:14:41.497Z,47.3
2017-03-13T14:15:51.237Z,47.2
2017-03-13T14:17:01.453Z,47.11
2017-03-13T14:18:11.733Z,47.39
2017-03-13T14:19:21.456Z,48.07
2017-03-13T14:20:31.606Z,47.71
2017-03-13T14:21:42.137Z,47.42
2017-03-13T14:22:52.686Z,47.8
2017-03-13T14:24:03.071Z,47.32
2017-03-13T14:25:14.014Z,47.13
2017-03-13T14:26:23.737Z,47.3
2017-03-13T14:27:34.269Z,47.42
2017-03-13T14:28:43.987Z,47.39
2017-03-13T14:29:54.129Z,47.58
2017-03-13T14:31:04.739Z,48.07
2017-03-13T14:32:14.863Z,48.16
2017-03-13T14:33:24.990Z,47.58
2017-03-13T14:34:35.521Z,47.39
2017-03-13T14:35:45.647Z,47.87
2017-03-13T14:36:54.546Z,47.49
2017-03-13T14:38:05.087Z,47.8
2017-03-13T14:39:16.019Z,47.42
2017-03-13T14:40:25.749Z,47.52
2017-03-13T14:41:36.279Z,47.49
2017-03-13T14:42:45.583Z,47.78
2017-03-13T14:43:54.480Z,47.68
2017-03-13T14:45:05.012Z,48.25
2017-03-13T14:46:14.720Z,48.16
2017-03-13T14:47:24.854Z,48.07
2017-03-13T14:48:34.980Z,47.49
2017-03-13T14:49:45.103Z,47.49
2017-03-13T14:50:55.250Z,47.97
2017-03-13T14:52:05.780Z,49.49
2017-03-13T14:53:15.083Z,48.44
2017-03-13T14:54:25.439Z,48.44
2017-03-13T14:55:35.754Z,49.49
2017-03-13T14:56:46.287Z,49.28
2017-03-13T14:57:57.226Z,49.28
2017-03-13T14:59:07.800Z,49.28
2017-03-13T15:00:18.346Z,49.57
2017-03-13T15:01:29.024Z,49.76
2017-03-13T15:02:39.557Z,49.57
2017-03-13T15:03:50.101Z,50.33
2017-03-13T15:05:00.226Z,51.48
2017-03-13T15:06:09.944Z,50.71
2017-03-13T15:07:20.010Z,50.33
2017-03-13T15:08:30.542Z,50.62
2017-03-13T15:09:40.265Z,50.71